Time;durP1;ratioP1;P1;durP2;ratioP2;P2;SDS_P1;SDS_P2;PMS_P1;PMS_P2;Temp;Humidity;BMP_temperature;BMP_pressure;BME280_temperature;BME280_humidity;BME280_pressure;Samples;Min_cycle;Max_cycle;Signal;HPM_P1;HPM_P2
2021/12/15 00:01:36;;;;;;;2.67;2.43;;;2.10;99.90;1.80;97728.00;;;;5054491;28;20507;-78
2021/12/15 00:04:26;;;;;;;3.63;2.70;;;2.10;99.90;1.90;97727.00;;;;5064356;28;20938;-78
2021/12/15 00:07:15;;;;;;;3.40;2.47;;;2.10;99.90;1.90;97736.00;;;;5054731;28;20428;-78
2021/12/15 00:10:06;;;;;;;3.23;2.43;;;2.00;99.90;1.90;97731.00;;;;5052739;28;20429;-78
2021/12/15 00:12:57;;;;;;;2.53;2.30;;;2.00;99.90;1.80;97736.00;;;;5041615;28;20450;-79
2021/12/15 00:15:47;;;;;;;2.93;2.20;;;2.00;99.90;1.60;97726.00;;;;5052285;28;20427;-80
2021/12/15 00:18:41;;;;;;;3.47;2.33;;;2.00;99.90;1.40;97729.00;;;;5052762;28;20450;-78
2021/12/15 00:21:31;;;;;;;3.17;2.63;;;1.90;99.90;1.40;97727.00;;;;5043938;28;20452;-80
2021/12/15 00:24:21;;;;;;;2.20;2.00;;;1.80;99.90;1.50;97728.00;;;;5049879;28;20424;-78
2021/12/15 00:27:10;;;;;;;2.80;2.20;;;1.80;99.90;1.40;97730.00;;;;5038639;28;20442;-81
2021/12/15 00:29:59;;;;;;;2.93;2.50;;;1.80;99.90;1.40;97729.00;;;;5049030;28;20434;-77
2021/12/15 00:32:49;;;;;;;4.63;3.03;;;1.70;99.90;1.60;97735.00;;;;5050906;28;20440;-78
2021/12/15 00:35:38;;;;;;;2.67;2.33;;;1.80;99.90;1.60;97728.00;;;;5040968;28;20957;-78
2021/12/15 00:38:29;;;;;;;3.20;2.70;;;1.80;99.90;1.60;97736.00;;;;5048357;28;21247;-77
2021/12/15 00:41:18;;;;;;;2.47;2.10;;;1.80;99.90;1.50;97742.00;;;;5049594;28;20455;-81
2021/12/15 00:44:09;;;;;;;3.40;2.50;;;1.80;99.90;1.40;97752.00;;;;5041320;28;20823;-77
2021/12/15 00:46:58;;;;;;;2.80;2.60;;;1.70;99.90;1.50;97750.00;;;;5042841;28;20436;-78
2021/12/15 00:49:47;;;;;;;6.37;2.53;;;1.70;99.90;1.50;97744.00;;;;5042561;28;20432;-77
2021/12/15 00:52:38;;;;;;;3.83;2.20;;;1.70;99.90;1.40;97736.00;;;;5042219;28;20466;-79
2021/12/15 00:55:29;;;;;;;3.63;2.47;;;1.70;99.90;1.30;97746.00;;;;5048547;28;20443;-77
2021/12/15 00:58:18;;;;;;;2.57;2.37;;;1.60;99.90;1.40;97739.00;;;;5050491;28;20455;-77
2021/12/15 01:01:07;;;;;;;3.50;2.33;;;1.60;99.90;1.30;97743.00;;;;5048169;28;20439;-77
2021/12/15 01:03:57;;;;;;;3.27;2.63;;;1.60;99.90;1.30;97752.00;;;;5060146;28;20437;-78
2021/12/15 01:06:53;;;;;;;2.40;2.20;;;1.60;99.90;1.40;97751.00;;;;5037590;28;20786;-77
2021/12/15 01:09:48;;;;;;;2.23;2.03;;;1.60;99.90;1.40;97750.00;;;;5037583;28;20432;-77
2021/12/15 01:12:51;;;;;;;3.43;2.63;;;1.60;99.90;1.10;97753.00;;;;5049089;28;20455;-77
2021/12/15 01:22:01;;;;;;;2.57;2.13;;;1.50;99.90;1.20;97770.00;;;;5049684;28;20457;-76
2021/12/15 01:24:51;;;;;;;3.70;2.47;;;1.50;99.90;1.20;97768.00;;;;5047183;28;20431;-79
2021/12/15 01:27:42;;;;;;;2.30;2.07;;;1.50;99.90;1.20;97762.00;;;;5050261;28;20431;-78
2021/12/15 01:30:36;;;;;;;2.83;2.00;;;1.50;99.90;1.30;97762.00;;;;5051405;28;20431;-79
2021/12/15 01:33:27;;;;;;;3.23;2.00;;;1.40;99.90;1.20;97748.00;;;;5054946;28;20431;-81
2021/12/15 01:36:16;;;;;;;3.73;2.77;;;1.40;99.90;1.10;97751.00;;;;5049032;28;20829;-78
2021/12/15 01:39:06;;;;;;;2.60;2.40;;;1.40;99.90;0.80;97745.00;;;;5040896;28;20463;-80
2021/12/15 01:41:56;;;;;;;2.27;2.07;;;1.30;99.90;0.50;97753.00;;;;5031359;28;20456;-79
2021/12/15 01:48:02;;;;;;;2.67;2.47;;;1.10;99.90;0.70;97753.00;;;;5046825;28;20464;-80
2021/12/15 01:50:51;;;;;;;3.10;2.83;;;1.10;99.90;0.90;97748.00;;;;5047158;28;20434;-77
2021/12/15 01:53:40;;;;;;;5.90;3.37;;;1.10;99.90;1.00;97749.00;;;;5046600;28;20440;-77
2021/12/15 01:56:30;;;;;;;2.33;2.03;;;1.20;99.90;1.00;97754.00;;;;5046892;28;20420;-77
2021/12/15 01:59:24;;;;;;;4.03;2.97;;;1.10;99.90;0.90;97759.00;;;;5034711;28;20463;-80
2021/12/15 02:02:16;;;;;;;6.97;3.47;;;1.20;99.90;0.90;97758.00;;;;5048880;28;20978;-79
2021/12/15 02:05:06;;;;;;;3.97;2.87;;;1.20;99.90;1.00;97760.00;;;;5054834;28;20886;-78
2021/12/15 02:07:56;;;;;;;3.43;2.93;;;1.20;99.90;1.10;97769.00;;;;5053095;28;20414;-81
2021/12/15 02:10:46;;;;;;;5.70;3.83;;;1.20;99.90;1.00;97754.00;;;;5050393;28;20428;-80
2021/12/15 02:13:35;;;;;;;5.50;3.13;;;1.20;99.90;1.00;97762.00;;;;5049150;28;20433;-80
2021/12/15 02:16:24;;;;;;;3.37;2.60;;;1.20;99.90;0.90;97749.00;;;;5050216;28;20779;-80
2021/12/15 02:19:15;;;;;;;2.57;2.20;;;1.20;99.90;1.00;97755.00;;;;5036208;28;20878;-77
2021/12/15 02:22:06;;;;;;;1.70;1.60;;;1.20;99.90;1.20;97761.00;;;;5048664;28;20459;-77
2021/12/15 02:24:55;;;;;;;2.23;1.83;;;1.30;99.90;1.20;97770.00;;;;5045764;28;20438;-77
2021/12/15 02:27:44;;;;;;;4.00;2.30;;;1.30;99.90;1.20;97755.00;;;;5037009;28;20450;-77
2021/12/15 02:30:49;;;;;;;2.23;2.03;;;1.40;99.90;1.40;97758.00;;;;5034286;28;20420;-78
2021/12/15 02:33:54;;;;;;;3.07;2.60;;;1.40;99.90;1.20;97750.00;;;;5032436;28;20447;-77
2021/12/15 02:39:54;;;;;;;1.73;1.63;;;1.40;99.90;1.10;97745.00;;;;5048400;28;20420;-78
2021/12/15 02:42:47;;;;;;;2.13;1.97;;;1.40;99.90;0.80;97757.00;;;;5046402;28;20817;-77
2021/12/15 02:45:36;;;;;;;3.00;1.63;;;1.30;99.90;0.60;97766.00;;;;5040350;28;20416;-81
2021/12/15 02:48:25;;;;;;;2.70;1.80;;;1.30;99.90;0.50;97757.00;;;;5028145;28;20432;-77
2021/12/15 02:51:14;;;;;;;1.87;1.60;;;1.20;99.90;0.80;97758.00;;;;5045065;28;20626;-77
2021/12/15 02:54:07;;;;;;;1.73;1.63;;;1.10;99.90;0.90;97769.00;;;;5049250;28;20435;-81
2021/12/15 02:57:04;;;;;;;1.60;1.37;;;1.20;99.90;1.00;97772.00;;;;5049722;28;20420;-80
2021/12/15 03:00:01;;;;;;;1.93;1.83;;;1.20;99.90;1.10;97769.00;;;;5041674;28;20956;-79
2021/12/15 03:06:25;;;;;;;1.67;1.33;;;1.20;99.90;1.20;97769.00;;;;5061940;28;20449;-81
2021/12/15 03:15:16;;;;;;;1.63;1.53;;;1.30;99.90;1.30;97785.00;;;;5051045;28;20530;-81
2021/12/15 03:15:35;;;;;;;1.73;1.63;;;1.40;99.90;1.40;97780.00;;;;5051250;28;20447;-79
2021/12/15 03:18:27;;;;;;;2.87;1.67;;;1.40;99.90;1.40;97783.00;;;;5054454;28;20475;-79
2021/12/15 03:21:21;;;;;;;1.70;1.60;;;1.40;99.90;1.50;97771.00;;;;5056097;28;20455;-79
2021/12/15 03:24:17;;;;;;;1.87;1.73;;;1.50;99.90;1.20;97776.00;;;;5041469;28;20430;-81
2021/12/15 03:27:11;;;;;;;1.50;1.40;;;1.50;99.90;1.30;97772.00;;;;5053412;28;20446;-80
2021/12/15 03:33:34;;;;;;;1.90;1.80;;;1.50;99.90;1.40;97772.00;;;;5004135;28;20455;-78
2021/12/15 03:36:38;;;;;;;1.47;1.37;;;1.50;99.90;1.40;97780.00;;;;5046974;28;20446;-78
2021/12/15 03:39:31;;;;;;;1.67;1.10;;;1.50;99.90;1.20;97768.00;;;;5053767;28;21008;-78
2021/12/15 03:42:27;;;;;;;1.73;1.63;;;1.50;99.90;1.10;97777.00;;;;5055039;28;20459;-80
2021/12/15 03:45:24;;;;;;;1.50;1.40;;;1.40;99.90;1.20;97773.00;;;;5053259;28;20424;-78
2021/12/15 03:48:18;;;;;;;1.90;1.80;;;1.40;99.90;1.10;97779.00;;;;5040111;28;20431;-80
2021/12/15 03:51:07;;;;;;;1.90;1.80;;;1.40;99.90;1.10;97780.00;;;;5054782;28;21135;-79
2021/12/15 03:53:56;;;;;;;2.27;1.97;;;1.40;99.90;1.20;97783.00;;;;5055871;28;20787;-81
2021/12/15 03:56:47;;;;;;;2.40;2.20;;;1.30;99.90;1.10;97776.00;;;;5061416;28;20930;-80
2021/12/15 03:59:41;;;;;;;2.77;1.77;;;1.30;99.90;1.20;97788.00;;;;5053102;28;20455;-79
2021/12/15 04:02:33;;;;;;;1.87;1.53;;;1.30;99.90;1.10;97785.00;;;;5057830;28;20443;-80
2021/12/15 04:05:23;;;;;;;1.77;1.67;;;1.30;99.90;1.20;97800.00;;;;5060342;28;20481;-80
2021/12/15 04:08:12;;;;;;;2.37;1.83;;;1.40;99.90;1.20;97798.00;;;;5044638;28;20432;-80
2021/12/15 04:11:01;;;;;;;2.00;1.80;;;1.40;99.90;1.20;97798.00;;;;5038557;28;20435;-79
2021/12/15 04:13:51;;;;;;;2.67;1.83;;;1.40;99.90;1.20;97794.00;;;;5054887;28;20435;-78
2021/12/15 04:16:46;;;;;;;2.00;1.80;;;1.30;99.90;1.10;97796.00;;;;5053415;28;20427;-79
2021/12/15 04:19:37;;;;;;;1.50;1.40;;;1.40;99.90;1.20;97799.00;;;;5041798;28;20467;-79
2021/12/15 04:22:28;;;;;;;2.30;1.87;;;1.30;99.90;1.20;97803.00;;;;5052105;28;20455;-79
2021/12/15 04:25:22;;;;;;;1.53;1.43;;;1.30;99.90;1.00;97792.00;;;;5047114;28;20448;-78
2021/12/15 04:28:15;;;;;;;1.90;1.43;;;1.30;99.90;0.70;97805.00;;;;5064377;28;20967;-81
2021/12/15 04:31:10;;;;;;;2.50;1.73;;;1.30;99.90;0.80;97799.00;;;;5052795;28;20432;-78
2021/12/15 04:34:05;;;;;;;2.07;1.87;;;1.20;99.90;0.70;97790.00;;;;5049219;28;20449;-82
2021/12/15 04:36:55;;;;;;;1.67;1.57;;;1.20;99.90;0.80;97790.00;;;;5063177;28;20481;-79
2021/12/15 04:39:44;;;;;;;1.63;1.53;;;1.20;99.90;0.70;97797.00;;;;5049795;28;20463;-79
2021/12/15 04:42:33;;;;;;;1.87;1.60;;;1.20;99.90;0.90;97795.00;;;;5042223;28;20443;-76
2021/12/15 04:45:24;;;;;;;1.70;1.60;;;1.20;99.90;1.00;97798.00;;;;5052493;28;20938;-81
2021/12/15 04:48:14;;;;;;;1.53;1.43;;;1.20;99.90;1.10;97791.00;;;;5039547;28;20427;-77
2021/12/15 04:51:06;;;;;;;1.70;1.60;;;1.20;99.90;1.30;97796.00;;;;5051419;28;20461;-76
2021/12/15 04:53:57;;;;;;;1.77;1.67;;;1.30;99.90;1.30;97789.00;;;;5051802;28;20424;-77
2021/12/15 04:56:47;;;;;;;1.40;1.30;;;1.40;99.90;1.40;97803.00;;;;5050296;28;20419;-78
2021/12/15 04:59:37;;;;;;;2.23;1.67;;;1.40;99.90;1.30;97806.00;;;;5050206;28;20478;-78
2021/12/15 05:02:28;;;;;;;2.17;1.93;;;1.40;99.90;1.20;97801.00;;;;5050369;28;20448;-81
2021/12/15 05:05:17;;;;;;;1.37;1.27;;;1.40;99.90;1.10;97799.00;;;;5048745;28;20423;-81
2021/12/15 05:08:07;;;;;;;1.80;1.70;;;1.40;99.90;1.10;97797.00;;;;5042031;28;20420;-77
2021/12/15 05:10:59;;;;;;;1.70;1.60;;;1.40;99.90;1.20;97809.00;;;;5043739;28;20424;-76
2021/12/15 05:13:48;;;;;;;1.90;1.77;;;1.30;99.90;1.30;97806.00;;;;5032001;28;20419;-76
2021/12/15 05:16:37;;;;;;;4.17;2.17;;;1.40;99.90;1.30;97816.00;;;;5034199;28;20416;-76
2021/12/15 05:19:27;;;;;;;2.97;1.87;;;1.40;99.90;1.30;97820.00;;;;5031983;28;20813;-77
2021/12/15 05:22:17;;;;;;;2.37;1.60;;;1.40;99.90;1.30;97831.00;;;;5034678;28;20440;-76
2021/12/15 05:25:10;;;;;;;3.97;3.57;;;1.50;99.90;1.10;97835.00;;;;5044744;28;20685;-78
2021/12/15 05:28:00;;;;;;;5.27;4.27;;;1.40;99.90;1.30;97835.00;;;;5050852;28;20431;-79
2021/12/15 05:30:50;;;;;;;6.47;3.60;;;1.50;99.90;1.20;97844.00;;;;5036575;28;20436;-77
2021/12/15 05:33:39;;;;;;;5.00;4.47;;;1.40;99.90;1.30;97839.00;;;;5039114;28;20431;-78
2021/12/15 05:36:28;;;;;;;8.60;5.80;;;1.40;99.90;1.40;97849.00;;;;5055612;28;20432;-75
2021/12/15 05:39:17;;;;;;;3.93;3.30;;;1.50;99.90;1.40;97851.00;;;;5054807;28;21037;-75
2021/12/15 05:42:07;;;;;;;4.13;2.47;;;1.40;99.90;1.40;97850.00;;;;5037054;28;20455;-74
2021/12/15 05:44:58;;;;;;;2.03;1.83;;;1.50;99.90;1.40;97860.00;;;;5046524;28;20432;-79
2021/12/15 05:47:47;;;;;;;3.47;2.20;;;1.50;99.90;1.30;97858.00;;;;5037319;28;20458;-81
2021/12/15 05:50:36;;;;;;;4.70;2.57;;;1.50;99.90;1.40;97860.00;;;;5048709;28;20972;-77
2021/12/15 05:53:25;;;;;;;4.20;2.20;;;1.50;99.90;1.30;97860.00;;;;5037381;28;20435;-77
2021/12/15 05:56:14;;;;;;;2.53;2.00;;;1.50;99.90;1.50;97858.00;;;;5047705;28;20835;-79
2021/12/15 05:59:04;;;;;;;2.50;2.30;;;1.60;99.90;1.60;97856.00;;;;5047775;28;20428;-75
2021/12/15 06:01:55;;;;;;;1.77;1.67;;;-0.10;99.90;1.50;97851.00;;;;5044748;28;21160;-75
2021/12/15 06:04:44;;;;;;;2.03;1.60;;;1.60;99.90;1.50;97851.00;;;;5035209;28;20431;-74
2021/12/15 06:07:33;;;;;;;2.03;1.83;;;1.60;99.90;1.60;97851.00;;;;5048561;28;21177;-77
2021/12/15 06:10:27;;;;;;;1.30;1.23;;;1.60;99.90;1.60;97852.00;;;;5047269;28;20427;-77
2021/12/15 06:13:15;;;;;;;1.77;1.67;;;1.70;99.90;1.50;97868.00;;;;5048237;28;20435;-76
2021/12/15 06:16:06;;;;;;;1.27;1.17;;;1.70;99.90;1.60;97862.00;;;;5046699;28;20442;-75
2021/12/15 06:18:57;;;;;;;2.20;2.00;;;1.70;99.90;1.60;97876.00;;;;5047279;28;20823;-76
2021/12/15 06:21:46;;;;;;;1.67;1.57;;;1.70;99.90;1.70;97868.00;;;;5047075;28;20454;-76
2021/12/15 06:24:36;;;;;;;1.83;1.70;;;1.70;99.90;1.70;97874.00;;;;5046458;28;20434;-76
2021/12/15 06:27:29;;;;;;;1.97;1.50;;;1.70;99.90;1.70;97880.00;;;;5052022;28;20446;-76
2021/12/15 06:30:17;;;;;;;1.60;1.50;;;1.80;99.90;1.60;97877.00;;;;5042215;28;20937;-76
2021/12/15 06:33:08;;;;;;;1.20;1.10;;;1.80;99.90;1.50;97892.00;;;;5032252;28;20454;-77
2021/12/15 06:36:00;;;;;;;1.60;1.30;;;1.80;99.90;1.60;97886.00;;;;5052896;28;20420;-75
2021/12/15 06:38:53;;;;;;;1.63;1.53;;;1.80;99.90;1.60;97897.00;;;;5048802;28;20420;-75
2021/12/15 06:41:43;;;;;;;1.97;1.80;;;1.70;99.90;1.70;97889.00;;;;5032993;28;20448;-76
2021/12/15 06:44:32;;;;;;;1.87;1.77;;;1.80;99.90;1.70;97899.00;;;;5047406;28;20470;-77
2021/12/15 06:59:49;;;;;;;1.70;1.57;;;1.80;99.90;1.90;97908.00;;;;5043246;28;21933;-78
2021/12/15 07:02:39;;;;;;;2.43;2.23;;;1.90;99.90;1.90;97915.00;;;;5046555;28;20435;-79
2021/12/15 07:05:30;;;;;;;3.50;3.20;;;1.90;99.90;2.00;97915.00;;;;5049341;28;20457;-78
2021/12/15 07:08:20;;;;;;;4.43;3.67;;;1.90;99.90;2.00;97919.00;;;;5050240;28;20430;-78
2021/12/15 07:11:10;;;;;;;3.43;2.63;;;2.00;99.90;1.90;97922.00;;;;5049336;28;20449;-77
2021/12/15 07:13:59;;;;;;;2.70;2.10;;;2.00;99.90;1.70;97923.00;;;;5035341;28;20431;-77
2021/12/15 07:16:52;;;;;;;3.53;1.90;;;2.00;99.90;1.70;97933.00;;;;5056917;28;20426;-81
2021/12/15 07:20:04;;;;;;;1.87;1.77;;;1.90;99.90;1.50;97928.00;;;;5048576;28;20942;-77
2021/12/15 07:22:53;;;;;;;2.70;2.50;;;1.90;99.90;1.50;97926.00;;;;5041468;28;20451;-78
2021/12/15 07:25:46;;;;;;;2.37;2.17;;;1.90;99.90;1.40;97931.00;;;;5060903;28;20786;-81
2021/12/15 07:28:37;;;;;;;3.37;2.03;;;1.80;99.90;1.50;97927.00;;;;5057135;28;20427;-76
2021/12/15 07:31:26;;;;;;;2.73;1.77;;;1.80;99.90;1.60;97936.00;;;;5040187;28;20455;-76
2021/12/15 07:34:15;;;;;;;3.40;2.83;;;1.80;99.90;1.80;97953.00;;;;5049765;28;20457;-76
2021/12/15 07:37:04;;;;;;;3.07;2.77;;;1.80;99.90;2.00;97956.00;;;;5044789;28;20939;-77
2021/12/15 07:39:58;;;;;;;2.53;2.27;;;1.40;99.90;2.00;97962.00;;;;5048116;28;20442;-77
2021/12/15 07:43:05;;;;;;;3.13;2.93;;;1.90;99.90;2.10;97965.00;;;;5046479;28;20826;-77
2021/12/15 07:46:02;;;;;;;2.47;2.27;;;2.00;99.90;2.20;97969.00;;;;5045544;28;20431;-77
2021/12/15 07:48:51;;;;;;;2.27;2.07;;;2.10;99.90;2.20;97972.00;;;;5038886;28;20435;-77
2021/12/15 07:51:43;;;;;;;2.40;2.20;;;2.10;99.90;2.10;97966.00;;;;5048540;28;20489;-77
2021/12/15 07:54:37;;;;;;;2.33;2.13;;;2.20;99.90;2.20;97977.00;;;;5047755;28;20979;-77
2021/12/15 07:57:28;;;;;;;2.07;1.87;;;2.20;99.90;2.40;97985.00;;;;5047529;28;20460;-78
2021/12/15 08:00:18;;;;;;;2.43;2.03;;;2.20;99.90;2.50;97995.00;;;;5052876;28;20463;-78
2021/12/15 08:03:09;;;;;;;2.30;1.97;;;2.30;99.90;2.50;97991.00;;;;5044620;28;20457;-78
2021/12/15 08:05:59;;;;;;;2.27;2.00;;;2.40;99.90;2.30;97997.00;;;;5059886;28;20450;-80
2021/12/15 08:08:48;;;;;;;3.50;2.03;;;2.40;99.90;2.20;97987.00;;;;5045674;28;20808;-78
2021/12/15 08:11:37;;;;;;;2.83;1.97;;;2.40;99.90;2.40;97984.00;;;;5051072;28;20450;-78
2021/12/15 08:14:26;;;;;;;2.50;2.30;;;2.40;99.90;2.50;97998.00;;;;5040049;28;20431;-78
2021/12/15 08:17:16;;;;;;;3.20;2.37;;;2.40;99.90;2.50;98002.00;;;;5051256;28;20427;-76
2021/12/15 08:20:10;;;;;;;4.33;3.27;;;2.50;99.90;2.60;97996.00;;;;5052021;28;20435;-76
2021/12/15 08:22:59;;;;;;;4.23;2.10;;;2.50;99.90;2.70;98006.00;;;;5039785;28;20448;-77
2021/12/15 08:25:48;;;;;;;2.90;2.57;;;2.60;99.90;2.70;98006.00;;;;5044942;28;20427;-78
2021/12/15 08:28:38;;;;;;;2.37;2.17;;;2.60;99.90;2.80;98012.00;;;;5043767;28;20428;-77
2021/12/15 08:31:27;;;;;;;1.70;1.60;;;2.60;99.90;2.50;98008.00;;;;5053140;28;20434;-77
2021/12/15 08:34:16;;;;;;;2.13;1.93;;;2.70;99.90;2.60;98017.00;;;;5055803;28;20488;-78
2021/12/15 08:37:13;;;;;;;2.33;2.13;;;2.70;99.90;2.80;98025.00;;;;5058167;28;20435;-77
2021/12/15 08:40:02;;;;;;;3.03;2.70;;;2.70;99.90;2.70;98022.00;;;;5054128;28;20438;-77
2021/12/15 08:42:51;;;;;;;1.90;1.80;;;2.70;99.90;2.80;98036.00;;;;5053231;28;20451;-79
2021/12/15 08:45:42;;;;;;;2.00;1.80;;;2.70;99.90;2.90;98042.00;;;;5051229;28;20418;-78
2021/12/15 08:48:34;;;;;;;2.10;1.90;;;2.70;99.90;2.90;98047.00;;;;5039557;28;20930;-78
2021/12/15 08:51:26;;;;;;;1.87;1.77;;;2.70;99.90;2.90;98046.00;;;;5051775;28;20454;-78
2021/12/15 08:54:19;;;;;;;2.30;1.97;;;2.80;99.90;3.00;98040.00;;;;5052643;28;20440;-78
2021/12/15 08:57:10;;;;;;;3.63;2.67;;;2.80;99.90;3.10;98041.00;;;;5057947;28;20438;-78
2021/12/15 08:59:59;;;;;;;4.20;3.30;;;2.90;99.90;3.20;98040.00;;;;5047423;28;20424;-78
2021/12/15 09:02:48;;;;;;;4.47;4.07;;;3.00;99.90;3.30;98042.00;;;;5056865;28;20447;-77
2021/12/15 09:05:38;;;;;;;7.77;5.87;;;3.00;99.90;3.20;98043.00;;;;5055330;28;20447;-77
2021/12/15 09:08:28;;;;;;;9.37;5.13;;;3.10;99.90;3.20;98034.00;;;;5050491;28;20428;-77
2021/12/15 09:11:24;;;;;;;13.00;6.73;;;3.10;99.90;3.50;98045.00;;;;5039234;28;20448;-77
2021/12/15 09:14:13;;;;;;;7.83;7.03;;;3.30;99.90;3.60;98044.00;;;;5038092;28;20432;-77
2021/12/15 09:17:05;;;;;;;12.03;6.67;;;3.30;99.90;3.70;98041.00;;;;5051650;28;20208;-77
2021/12/15 09:19:54;;;;;;;12.27;6.30;;;3.40;99.90;3.60;98047.00;;;;5057302;28;20431;-77
2021/12/15 09:22:43;;;;;;;9.53;5.43;;;3.50;99.90;3.80;98049.00;;;;5048116;28;20336;-77
2021/12/15 09:25:32;;;;;;;8.47;5.50;;;3.50;99.90;3.70;98054.00;;;;5051140;28;20208;-77
2021/12/15 09:28:24;;;;;;;5.93;5.27;;;3.60;99.90;3.70;98049.00;;;;5037714;28;20212;-77
2021/12/15 09:31:17;;;;;;;7.53;6.33;;;3.60;99.90;3.90;98060.00;;;;5048703;28;20227;-78
2021/12/15 09:34:11;;;;;;;8.83;6.50;;;3.70;99.90;3.90;98050.00;;;;5053197;28;20287;-77
2021/12/15 09:37:02;;;;;;;13.67;6.20;;;3.70;99.90;3.80;98047.00;;;;5046237;28;20215;-78
2021/12/15 09:39:51;;;;;;;14.43;6.43;;;3.80;99.90;4.00;98048.00;;;;5046322;28;20207;-78
2021/12/15 09:42:41;;;;;;;10.87;7.33;;;3.80;99.90;4.10;98048.00;;;;5047655;28;20240;-77
2021/12/15 09:45:41;;;;;;;10.53;6.93;;;3.90;99.90;4.30;98046.00;;;;5039845;28;20695;-77
2021/12/15 10:04:20;;;;;;;13.50;8.43;;;4.50;99.90;5.00;98050.00;;;;5048161;28;20687;-76
2021/12/15 10:07:20;;;;;;;10.27;7.27;;;4.60;99.90;4.90;98052.00;;;;5031359;28;20215;-76
2021/12/15 10:19:47;;;;;;;12.53;8.33;;;4.80;99.90;5.10;98059.00;;;;5046325;28;20201;-75
2021/12/15 10:22:41;;;;;;;10.60;7.47;;;4.80;99.90;4.90;98058.00;;;;5046349;28;20736;-75
2021/12/15 10:25:35;;;;;;;18.03;7.33;;;4.90;99.90;5.00;98052.00;;;;5046899;28;20201;-75
2021/12/15 10:28:27;;;;;;;11.97;7.80;;;4.90;99.90;5.30;98058.00;;;;5046653;28;20230;-75
2021/12/15 10:31:17;;;;;;;15.93;8.13;;;4.90;99.90;5.60;98060.00;;;;5056147;28;20246;-75
2021/12/15 10:34:11;;;;;;;17.20;8.53;;;5.00;99.90;5.70;98055.00;;;;5044142;28;20209;-76
2021/12/15 10:37:13;;;;;;;16.23;9.47;;;5.10;99.90;5.80;98060.00;;;;5058684;28;20211;-74
2021/12/15 10:40:19;;;;;;;11.83;8.77;;;5.20;99.90;5.90;98052.00;;;;5049708;28;20555;-75
2021/12/15 10:43:08;;;;;;;13.07;9.63;;;5.30;99.90;5.90;98062.00;;;;5045793;28;20235;-74
2021/12/15 10:46:03;;;;;;;12.60;8.97;;;5.40;99.90;6.10;98070.00;;;;5047590;28;20652;-74
2021/12/15 10:48:56;;;;;;;12.60;9.03;;;5.50;99.90;6.20;98059.00;;;;5034889;28;20212;-75
2021/12/15 10:51:49;;;;;;;14.27;9.00;;;5.60;99.90;6.30;98055.00;;;;5047424;28;20226;-74
2021/12/15 10:54:44;;;;;;;14.07;8.10;;;5.70;99.90;6.20;98066.00;;;;5045021;28;20201;-75
2021/12/15 10:57:41;;;;;;;12.27;8.17;;;5.80;99.90;6.00;98071.00;;;;5041101;28;20216;-74
2021/12/15 11:00:36;;;;;;;8.93;7.63;;;5.80;99.90;5.90;98066.00;;;;5036432;28;20208;-74
2021/12/15 11:03:34;;;;;;;10.10;8.50;;;5.80;99.90;5.90;98073.00;;;;5041888;28;20224;-74
2021/12/15 11:06:38;;;;;;;9.00;7.30;;;5.80;99.90;5.90;98068.00;;;;5044011;28;20581;-75
2021/12/15 11:09:34;;;;;;;10.70;8.47;;;5.70;99.90;6.00;98064.00;;;;5046602;28;20248;-74
2021/12/15 11:12:28;;;;;;;11.23;9.03;;;5.70;99.90;5.90;98072.00;;;;5053428;28;20227;-75
2021/12/15 11:15:22;;;;;;;10.07;7.40;;;5.70;99.90;6.00;98076.00;;;;5053172;28;20218;-74
2021/12/15 11:18:16;;;;;;;13.60;8.13;;;5.70;99.90;6.10;98071.00;;;;5049799;28;20654;-74
2021/12/15 11:21:09;;;;;;;9.97;7.13;;;5.70;99.90;6.10;98067.00;;;;5034968;28;20227;-75
2021/12/15 11:24:01;;;;;;;8.43;6.93;;;5.70;99.90;6.00;98069.00;;;;5026623;28;20201;-74
2021/12/15 11:27:15;;;;;;;9.00;6.70;;;5.70;99.90;6.10;98064.00;;;;5040153;28;20618;-74
2021/12/15 11:30:09;;;;;;;11.27;7.10;;;5.80;99.90;6.10;98063.00;;;;5046974;28;20201;-75
2021/12/15 11:33:01;;;;;;;13.17;6.17;;;5.80;99.90;6.00;98059.00;;;;5041239;28;20220;-76
2021/12/15 11:35:56;;;;;;;10.63;7.10;;;5.80;99.90;5.80;98053.00;;;;5051625;28;20204;-74
2021/12/15 11:38:48;;;;;;;9.57;6.77;;;5.70;99.90;5.90;98051.00;;;;5034502;28;20225;-75
2021/12/15 11:41:41;;;;;;;10.10;7.27;;;5.70;99.90;5.90;98048.00;;;;5049207;28;20262;-74
2021/12/15 11:44:34;;;;;;;8.13;5.90;;;5.70;99.90;5.90;98048.00;;;;5049437;28;20211;-75
2021/12/15 11:47:24;;;;;;;9.87;6.57;;;5.70;99.90;5.90;98046.00;;;;5045867;28;20211;-76
2021/12/15 11:50:21;;;;;;;10.10;7.40;;;5.70;99.90;6.00;98040.00;;;;5041754;28;20201;-75
2021/12/15 11:53:23;;;;;;;11.10;6.70;;;5.70;99.90;6.20;98042.00;;;;5031653;28;20228;-76
2021/12/15 11:56:27;;;;;;;10.77;7.80;;;5.80;99.90;6.30;98030.00;;;;5042620;28;20584;-77
2021/12/15 11:59:25;;;;;;;16.70;7.60;;;5.90;99.90;6.70;98031.00;;;;5056340;28;20207;-78
2021/12/15 12:02:23;;;;;;;11.57;7.53;;;6.10;99.90;7.20;98031.00;;;;5058724;28;20730;-77
2021/12/15 12:05:15;;;;;;;10.63;8.50;;;6.40;99.90;7.80;98038.00;;;;5061111;28;20215;-75
2021/12/15 12:08:12;;;;;;;14.07;8.83;;;6.80;99.90;8.40;98046.00;;;;5063397;28;20202;-77
2021/12/15 12:11:15;;;;;;;17.13;9.20;;;7.40;99.90;8.50;98046.00;;;;5058262;28;20684;-76
2021/12/15 12:14:04;;;;;;;15.30;8.20;;;7.80;99.90;8.40;98057.00;;;;5068330;28;20199;-77
2021/12/15 12:16:52;;;;;;;15.20;7.63;;;8.10;99.90;8.20;98061.00;;;;5065577;28;20196;-78
2021/12/15 12:19:51;;;;;;;11.23;8.70;;;8.10;99.90;7.70;98047.00;;;;5065164;28;20203;-76
2021/12/15 12:22:43;;;;;;;13.07;9.00;;;7.90;99.90;7.50;98041.00;;;;5056242;28;20220;-77
2021/12/15 12:25:37;;;;;;;20.57;9.37;;;7.70;99.90;7.40;98039.00;;;;5050398;28;20222;-76
2021/12/15 12:28:30;;;;;;;18.87;8.53;;;7.50;99.90;7.30;98038.00;;;;5048307;28;20204;-75
2021/12/15 12:31:23;;;;;;;17.47;8.67;;;7.30;99.90;7.30;98035.00;;;;5048717;28;20239;-76
2021/12/15 12:34:12;;;;;;;16.70;8.23;;;7.20;99.90;7.40;98043.00;;;;5050073;28;20200;-75
2021/12/15 12:37:03;;;;;;;17.87;8.83;;;7.10;99.90;7.70;98033.00;;;;5048123;28;20209;-77
2021/12/15 12:39:58;;;;;;;14.33;9.20;;;7.20;99.90;7.90;98033.00;;;;5047910;28;20209;-77
2021/12/15 12:42:47;;;;;;;18.70;9.13;;;7.30;99.90;8.10;98042.00;;;;5049652;28;20314;-77
2021/12/15 12:45:39;;;;;;;20.70;9.97;;;7.50;99.90;7.90;98044.00;;;;5046253;28;20204;-77
2021/12/15 13:01:11;;;;;;;21.40;10.97;;;7.80;99.90;8.20;98043.00;;;;5043391;28;20212;-76
2021/12/15 13:04:12;;;;;;;17.30;8.60;;;8.00;99.90;8.40;98045.00;;;;5047222;28;20221;-75
2021/12/15 13:07:01;;;;;;;17.07;9.13;;;8.10;99.90;8.40;98045.00;;;;5042685;28;20200;-75
2021/12/15 13:09:53;;;;;;;12.20;8.43;;;8.10;99.90;8.40;98036.00;;;;5039789;28;20667;-74
2021/12/15 13:12:47;;;;;;;13.63;8.10;;;8.20;99.90;8.50;98033.00;;;;5048077;28;20223;-76
2021/12/15 13:15:36;;;;;;;21.77;9.00;;;8.20;99.90;8.50;98044.00;;;;5054767;28;20288;-74
2021/12/15 13:18:26;;;;;;;12.90;8.13;;;8.30;99.90;8.60;98048.00;;;;5047821;28;20216;-76
2021/12/15 13:21:19;;;;;;;13.33;9.53;;;8.30;99.90;8.70;98043.00;;;;5043404;28;20227;-76
2021/12/15 13:31:15;;;;;;;13.23;7.53;;;8.50;99.90;8.40;98065.00;;;;5044120;28;20223;-75
2021/12/15 13:34:05;;;;;;;14.73;6.47;;;8.50;99.90;8.30;98057.00;;;;5044690;28;20204;-75
2021/12/15 13:36:55;;;;;;;11.60;6.73;;;8.40;99.90;8.30;98046.00;;;;5046969;28;20204;-74
2021/12/15 13:39:50;;;;;;;14.40;7.27;;;8.40;99.90;8.20;98060.00;;;;5047565;28;20604;-73
2021/12/15 13:42:52;;;;;;;13.70;7.37;;;7.40;99.90;8.10;98060.00;;;;5041644;28;20224;-72
2021/12/15 13:45:51;;;;;;;10.67;7.53;;;8.20;99.90;7.90;98060.00;;;;5055297;28;20578;-72
2021/12/15 13:48:58;;;;;;;15.67;7.30;;;8.10;99.90;7.80;98066.00;;;;5045015;28;20235;-73
2021/12/15 13:52:15;;;;;;;14.00;6.77;;;8.00;99.90;7.80;98055.00;;;;5043113;28;20239;-74
2021/12/15 13:55:21;;;;;;;11.90;7.40;;;7.90;99.90;7.60;98063.00;;;;5044885;28;20192;-73
2021/12/15 13:58:20;;;;;;;16.10;7.40;;;7.80;99.90;7.30;98054.00;;;;5045245;28;20212;-73
2021/12/15 14:01:13;;;;;;;13.13;6.87;;;7.60;99.90;7.10;98044.00;;;;5047801;28;20211;-73
2021/12/15 14:04:02;;;;;;;11.53;5.97;;;7.40;99.90;7.20;98057.00;;;;5052091;28;20227;-74
2021/12/15 14:06:51;;;;;;;10.67;6.37;;;7.30;99.90;7.20;98049.00;;;;5039443;28;20216;-72
2021/12/15 14:09:40;;;;;;;19.87;8.10;;;7.20;99.90;6.80;98047.00;;;;5038523;28;20208;-75
2021/12/15 14:12:58;;;;;;;15.73;7.87;;;7.10;99.90;6.10;98040.00;;;;5034377;28;20238;-74
2021/12/15 14:15:55;;;;;;;13.97;7.67;;;6.90;99.90;5.70;98026.00;;;;5029102;28;20213;-75
2021/12/15 14:18:45;;;;;;;11.80;8.27;;;6.50;99.90;5.70;98031.00;;;;5046654;28;20208;-74
2021/12/15 14:21:36;;;;;;;12.97;8.27;;;6.30;99.90;5.80;98037.00;;;;5047828;28;20711;-74